Midland, Texas
Current Conditions -  °F | °C
As of 6:15 AM on Thursday 18 Dec 2014 (Local Time) from KMDD Reporting Station
Clear Clear  
Wind Chill: 44°   Ceiling: Unl
Heat Index: 46°   Visibility: 10mi
Dew Point: 33°   Wind: 5mph
Humidity: 59%   Direction: 290°WNW
Pressure: 30.09"   Gusts: NA
Location:  32°N, 102.07°W
Report Text: KMDD 181215Z AUTO 29004KT 10SM CLR 08/00 A3009 RMK AO2 T00780003
Loading
Personal Weather Stations






























Interactive Weather Map New forecast layout! Learn more

10-Day Weather Forecast

Advertisements
Track Severe Weather on mobile